sensor_id;sensor_type;location;lat;lon;timestamp;pressure;altitude;pressure_sealevel;temperature;humidity
28665;BME280;15850;47.524;7.814;2022-12-20T00:02:23;98400.00;;;-0.15;100.00
28665;BME280;15850;47.524;7.814;2022-12-20T00:04:50;98139.00;;;-1.69;100.00
28665;BME280;15850;47.524;7.814;2022-12-20T00:07:15;98159.81;;;-1.27;100.00
28665;BME280;15850;47.524;7.814;2022-12-20T00:09:42;98279.28;;;-0.51;100.00
28665;BME280;15850;47.524;7.814;2022-12-20T00:12:08;98361.06;;;-0.06;100.00
28665;BME280;15850;47.524;7.814;2022-12-20T00:14:33;98380.88;;;0.20;100.00
28665;BME280;15850;47.524;7.814;2022-12-20T00:16:59;98242.13;;;-0.75;100.00
28665;BME280;15850;47.524;7.814;2022-12-20T00:19:24;98195.56;;;-1.28;100.00
28665;BME280;15850;47.524;7.814;2022-12-20T00:21:50;98160.06;;;-1.28;100.00
28665;BME280;15850;47.524;7.814;2022-12-20T00:24:15;98256.50;;;-0.59;100.00
28665;BME280;15850;47.524;7.814;2022-12-20T00:26:42;98347.44;;;-0.05;100.00
28665;BME280;15850;47.524;7.814;2022-12-20T00:29:08;98336.38;;;0.14;100.00
28665;BME280;15850;47.524;7.814;2022-12-20T00:31:34;98315.03;;;-0.08;100.00
28665;BME280;15850;47.524;7.814;2022-12-20T00:34:00;98312.69;;;-0.27;100.00
28665;BME280;15850;47.524;7.814;2022-12-20T00:36:28;98380.75;;;0.37;100.00
28665;BME280;15850;47.524;7.814;2022-12-20T00:38:55;98375.34;;;0.32;100.00
28665;BME280;15850;47.524;7.814;2022-12-20T00:41:23;98274.19;;;-0.75;100.00
28665;BME280;15850;47.524;7.814;2022-12-20T00:43:51;98148.88;;;-1.47;100.00
28665;BME280;15850;47.524;7.814;2022-12-20T00:46:20;98184.44;;;-1.20;100.00
28665;BME280;15850;47.524;7.814;2022-12-20T00:48:46;98361.00;;;0.16;100.00
28665;BME280;15850;47.524;7.814;2022-12-20T00:51:13;98362.78;;;0.05;100.00
28665;BME280;15850;47.524;7.814;2022-12-20T00:53:40;98358.72;;;0.03;100.00
28665;BME280;15850;47.524;7.814;2022-12-20T00:56:07;98371.47;;;0.17;100.00
28665;BME280;15850;47.524;7.814;2022-12-20T00:58:35;98271.88;;;-0.44;100.00
28665;BME280;15850;47.524;7.814;2022-12-20T01:01:02;98378.59;;;0.34;100.00
28665;BME280;15850;47.524;7.814;2022-12-20T01:03:28;98370.75;;;0.27;100.00
28665;BME280;15850;47.524;7.814;2022-12-20T01:05:55;98362.75;;;0.32;100.00
28665;BME280;15850;47.524;7.814;2022-12-20T01:08:22;98361.53;;;0.45;100.00
28665;BME280;15850;47.524;7.814;2022-12-20T01:10:57;98360.63;;;0.61;100.00
28665;BME280;15850;47.524;7.814;2022-12-20T01:13:23;98165.84;;;-0.60;100.00
28665;BME280;15850;47.524;7.814;2022-12-20T01:15:49;98250.91;;;-0.03;100.00
28665;BME280;15850;47.524;7.814;2022-12-20T01:18:16;98141.50;;;-0.91;100.00
28665;BME280;15850;47.524;7.814;2022-12-20T01:20:43;98308.34;;;0.21;100.00
28665;BME280;15850;47.524;7.814;2022-12-20T01:23:08;98215.50;;;-0.42;100.00
28665;BME280;15850;47.524;7.814;2022-12-20T01:25:34;98344.47;;;0.51;100.00
28665;BME280;15850;47.524;7.814;2022-12-20T01:27:59;98156.94;;;-0.71;100.00
28665;BME280;15850;47.524;7.814;2022-12-20T01:30:25;98339.78;;;0.36;100.00
28665;BME280;15850;47.524;7.814;2022-12-20T01:32:50;98336.44;;;0.51;100.00
28665;BME280;15850;47.524;7.814;2022-12-20T01:35:17;98212.06;;;-0.06;100.00
28665;BME280;15850;47.524;7.814;2022-12-20T01:37:43;98338.75;;;0.75;100.00
28665;BME280;15850;47.524;7.814;2022-12-20T01:40:09;98157.25;;;-0.67;100.00
28665;BME280;15850;47.524;7.814;2022-12-20T01:42:34;98123.13;;;-0.87;100.00
28665;BME280;15850;47.524;7.814;2022-12-20T01:45:00;98195.69;;;-0.14;100.00
28665;BME280;15850;47.524;7.814;2022-12-20T01:47:28;98354.09;;;0.84;100.00
28665;BME280;15850;47.524;7.814;2022-12-20T01:49:58;98230.88;;;0.05;100.00
28665;BME280;15850;47.524;7.814;2022-12-20T01:52:29;98248.38;;;0.17;100.00
28665;BME280;15850;47.524;7.814;2022-12-20T01:55:02;98346.91;;;0.90;100.00
28665;BME280;15850;47.524;7.814;2022-12-20T01:57:33;98342.78;;;0.77;100.00
28665;BME280;15850;47.524;7.814;2022-12-20T01:59:59;98257.16;;;0.13;100.00
28665;BME280;15850;47.524;7.814;2022-12-20T02:02:25;98275.00;;;0.34;100.00
28665;BME280;15850;47.524;7.814;2022-12-20T02:04:51;98211.06;;;-0.27;100.00
28665;BME280;15850;47.524;7.814;2022-12-20T02:07:20;98339.19;;;0.61;100.00
28665;BME280;15850;47.524;7.814;2022-12-20T02:09:50;98336.72;;;0.55;100.00
28665;BME280;15850;47.524;7.814;2022-12-20T02:12:19;98332.84;;;0.73;100.00
28665;BME280;15850;47.524;7.814;2022-12-20T02:14:58;98242.25;;;-0.10;100.00
28665;BME280;15850;47.524;7.814;2022-12-20T02:17:32;98325.97;;;0.50;100.00
28665;BME280;15850;47.524;7.814;2022-12-20T02:20:31;98288.63;;;0.33;100.00
28665;BME280;15850;47.524;7.814;2022-12-20T02:26:03;98222.13;;;0.14;100.00
28665;BME280;15850;47.524;7.814;2022-12-20T02:28:47;98253.00;;;0.27;100.00
28665;BME280;15850;47.524;7.814;2022-12-20T02:31:22;98297.72;;;0.69;100.00
28665;BME280;15850;47.524;7.814;2022-12-20T02:33:51;98192.91;;;0.08;100.00
28665;BME280;15850;47.524;7.814;2022-12-20T02:36:19;98279.41;;;0.93;100.00
28665;BME280;15850;47.524;7.814;2022-12-20T02:38:49;98288.47;;;0.87;100.00
28665;BME280;15850;47.524;7.814;2022-12-20T02:41:19;98282.59;;;0.90;100.00
28665;BME280;15850;47.524;7.814;2022-12-20T02:43:49;98222.44;;;0.60;100.00
28665;BME280;15850;47.524;7.814;2022-12-20T02:46:19;98279.41;;;0.93;100.00
28665;BME280;15850;47.524;7.814;2022-12-20T02:48:48;98272.47;;;0.97;100.00
28665;BME280;15850;47.524;7.814;2022-12-20T02:51:15;98225.69;;;0.67;100.00
28665;BME280;15850;47.524;7.814;2022-12-20T02:53:42;98247.69;;;0.75;100.00
28665;BME280;15850;47.524;7.814;2022-12-20T02:56:13;98216.06;;;0.72;100.00
28665;BME280;15850;47.524;7.814;2022-12-20T02:58:48;98254.50;;;0.98;100.00
28665;BME280;15850;47.524;7.814;2022-12-20T03:01:20;98259.78;;;0.82;100.00
28665;BME280;15850;47.524;7.814;2022-12-20T03:03:47;98262.31;;;1.04;100.00
28665;BME280;15850;47.524;7.814;2022-12-20T03:06:14;98261.22;;;1.00;100.00
28665;BME280;15850;47.524;7.814;2022-12-20T03:08:39;98247.78;;;0.95;100.00
28665;BME280;15850;47.524;7.814;2022-12-20T03:11:05;98249.56;;;0.79;100.00
28665;BME280;15850;47.524;7.814;2022-12-20T03:13:31;98238.59;;;0.76;100.00
28665;BME280;15850;47.524;7.814;2022-12-20T03:16:05;98184.28;;;0.38;100.00
28665;BME280;15850;47.524;7.814;2022-12-20T03:18:32;98268.94;;;0.91;100.00
28665;BME280;15850;47.524;7.814;2022-12-20T03:20:58;98160.09;;;0.22;100.00
28665;BME280;15850;47.524;7.814;2022-12-20T03:23:24;98027.31;;;-0.41;100.00
28665;BME280;15850;47.524;7.814;2022-12-20T03:25:49;98070.47;;;-0.22;100.00
28665;BME280;15850;47.524;7.814;2022-12-20T03:28:24;98115.81;;;-0.01;100.00
28665;BME280;15850;47.524;7.814;2022-12-20T03:30:50;98231.91;;;0.78;100.00
28665;BME280;15850;47.524;7.814;2022-12-20T03:33:16;98170.50;;;0.14;100.00
28665;BME280;15850;47.524;7.814;2022-12-20T03:35:43;98247.06;;;0.62;100.00
28665;BME280;15850;47.524;7.814;2022-12-20T03:38:09;98224.16;;;0.77;100.00
28665;BME280;15850;47.524;7.814;2022-12-20T03:40:35;98242.19;;;0.97;100.00
28665;BME280;15850;47.524;7.814;2022-12-20T03:43:01;97971.50;;;-0.75;100.00
28665;BME280;15850;47.524;7.814;2022-12-20T03:45:26;98223.19;;;1.03;100.00
28665;BME280;15850;47.524;7.814;2022-12-20T03:47:54;98084.00;;;0.03;100.00
28665;BME280;15850;47.524;7.814;2022-12-20T03:50:23;98075.78;;;0.15;100.00
28665;BME280;15850;47.524;7.814;2022-12-20T03:52:50;97839.41;;;-1.37;100.00
28665;BME280;15850;47.524;7.814;2022-12-20T03:55:16;98235.06;;;1.23;100.00
28665;BME280;15850;47.524;7.814;2022-12-20T03:57:43;98233.22;;;1.33;100.00
28665;BME280;15850;47.524;7.814;2022-12-20T04:00:31;98239.38;;;1.34;100.00
28665;BME280;15850;47.524;7.814;2022-12-20T04:03:14;98240.50;;;1.43;100.00
28665;BME280;15850;47.524;7.814;2022-12-20T04:05:40;98123.06;;;0.52;100.00
28665;BME280;15850;47.524;7.814;2022-12-20T04:08:07;98179.47;;;0.92;100.00
28665;BME280;15850;47.524;7.814;2022-12-20T04:10:33;98240.19;;;1.34;100.00
28665;BME280;15850;47.524;7.814;2022-12-20T04:12:58;98239.38;;;1.34;100.00
28665;BME280;15850;47.524;7.814;2022-12-20T04:15:24;98241.78;;;1.35;100.00
28665;BME280;15850;47.524;7.814;2022-12-20T04:17:49;98230.75;;;1.22;100.00
28665;BME280;15850;47.524;7.814;2022-12-20T04:20:16;98232.34;;;1.17;100.00
28665;BME280;15850;47.524;7.814;2022-12-20T04:22:41;98182.59;;;0.74;100.00
28665;BME280;15850;47.524;7.814;2022-12-20T04:25:08;98222.75;;;1.27;100.00
28665;BME280;15850;47.524;7.814;2022-12-20T04:27:37;98229.13;;;1.15;100.00
28665;BME280;15850;47.524;7.814;2022-12-20T04:30:06;98100.44;;;0.22;100.00
28665;BME280;15850;47.524;7.814;2022-12-20T04:32:32;98188.38;;;1.03;100.00
28665;BME280;15850;47.524;7.814;2022-12-20T04:34:59;98235.00;;;1.07;100.00
28665;BME280;15850;47.524;7.814;2022-12-20T04:37:25;98187.22;;;0.89;100.00
28665;BME280;15850;47.524;7.814;2022-12-20T04:39:53;98113.34;;;0.30;100.00
28665;BME280;15850;47.524;7.814;2022-12-20T04:42:23;98221.56;;;0.97;100.00
28665;BME280;15850;47.524;7.814;2022-12-20T04:44:50;98227.34;;;0.79;100.00
28665;BME280;15850;47.524;7.814;2022-12-20T04:47:21;98134.78;;;0.40;100.00
28665;BME280;15850;47.524;7.814;2022-12-20T04:49:47;98219.88;;;0.86;100.00
28665;BME280;15850;47.524;7.814;2022-12-20T04:52:12;97666.34;;;-2.67;100.00
28665;BME280;15850;47.524;7.814;2022-12-20T04:54:38;98184.88;;;0.45;100.00
28665;BME280;15850;47.524;7.814;2022-12-20T05:00:42;98212.25;;;0.57;100.00
28665;BME280;15850;47.524;7.814;2022-12-20T05:03:22;98110.66;;;-0.12;100.00
28665;BME280;15850;47.524;7.814;2022-12-20T05:05:48;98206.34;;;0.55;100.00
28665;BME280;15850;47.524;7.814;2022-12-20T05:08:14;98207.13;;;0.56;100.00
28665;BME280;15850;47.524;7.814;2022-12-20T05:10:40;98082.00;;;-0.17;100.00
28665;BME280;15850;47.524;7.814;2022-12-20T05:13:05;98174.72;;;0.52;100.00
28665;BME280;15850;47.524;7.814;2022-12-20T05:15:36;98122.00;;;0.05;100.00
28665;BME280;15850;47.524;7.814;2022-12-20T05:18:04;98159.56;;;0.20;100.00
28665;BME280;15850;47.524;7.814;2022-12-20T05:20:40;98146.19;;;0.20;100.00
28665;BME280;15850;47.524;7.814;2022-12-20T05:23:06;98202.47;;;0.36;100.00
28665;BME280;15850;47.524;7.814;2022-12-20T05:25:33;98189.66;;;0.38;100.00
28665;BME280;15850;47.524;7.814;2022-12-20T05:28:03;98183.28;;;0.49;100.00
28665;BME280;15850;47.524;7.814;2022-12-20T05:30:32;97757.50;;;-2.33;100.00
28665;BME280;15850;47.524;7.814;2022-12-20T05:32:58;98183.28;;;0.49;100.00
28665;BME280;15850;47.524;7.814;2022-12-20T05:35:25;98114.16;;;-0.07;100.00
28665;BME280;15850;47.524;7.814;2022-12-20T05:37:57;98180.59;;;0.49;100.00
28665;BME280;15850;47.524;7.814;2022-12-20T05:40:23;98079.31;;;-0.22;100.00
28665;BME280;15850;47.524;7.814;2022-12-20T05:42:49;98121.50;;;0.08;100.00
28665;BME280;15850;47.524;7.814;2022-12-20T05:45:15;98127.88;;;0.02;100.00
28665;BME280;15850;47.524;7.814;2022-12-20T05:47:49;97999.44;;;-0.88;100.00
28665;BME280;15850;47.524;7.814;2022-12-20T05:50:15;98175.91;;;0.24;100.00
28665;BME280;15850;47.524;7.814;2022-12-20T05:53:02;98029.63;;;-0.55;100.00
28665;BME280;15850;47.524;7.814;2022-12-20T05:55:28;98174.50;;;0.16;100.00
28665;BME280;15850;47.524;7.814;2022-12-20T05:57:53;98094.69;;;-0.39;100.00
28665;BME280;15850;47.524;7.814;2022-12-20T06:00:28;98162.53;;;0.24;100.00
28665;BME280;15850;47.524;7.814;2022-12-20T06:02:54;98188.50;;;0.23;100.00
28665;BME280;15850;47.524;7.814;2022-12-20T06:05:19;97848.31;;;-1.58;100.00
28665;BME280;15850;47.524;7.814;2022-12-20T06:07:46;98096.72;;;-0.14;100.00
28665;BME280;15850;47.524;7.814;2022-12-20T06:10:14;97681.38;;;-2.83;100.00
28665;BME280;15850;47.524;7.814;2022-12-20T06:12:50;98160.53;;;0.46;100.00
28665;BME280;15850;47.524;7.814;2022-12-20T06:15:17;98194.59;;;0.61;100.00
28665;BME280;15850;47.524;7.814;2022-12-20T06:17:42;98182.84;;;0.73;100.00
28665;BME280;15850;47.524;7.814;2022-12-20T06:20:08;98134.28;;;0.49;100.00
28665;BME280;15850;47.524;7.814;2022-12-20T06:22:34;97806.09;;;-1.67;100.00
28665;BME280;15850;47.524;7.814;2022-12-20T06:25:00;98211.78;;;0.70;100.00
28665;BME280;15850;47.524;7.814;2022-12-20T06:27:30;98076.75;;;-0.02;100.00
28665;BME280;15850;47.524;7.814;2022-12-20T06:30:08;98168.72;;;0.82;100.00
28665;BME280;15850;47.524;7.814;2022-12-20T06:32:49;97895.00;;;-0.86;100.00
28665;BME280;15850;47.524;7.814;2022-12-20T06:35:14;98069.66;;;0.25;100.00
28665;BME280;15850;47.524;7.814;2022-12-20T06:37:41;98162.34;;;0.99;100.00
28665;BME280;15850;47.524;7.814;2022-12-20T06:40:08;98170.09;;;0.90;100.00
28665;BME280;15850;47.524;7.814;2022-12-20T06:42:36;98165.06;;;1.14;100.00
28665;BME280;15850;47.524;7.814;2022-12-20T06:45:02;98157.75;;;0.89;100.00
28665;BME280;15850;47.524;7.814;2022-12-20T06:47:28;98154.53;;;0.92;100.00
28665;BME280;15850;47.524;7.814;2022-12-20T06:49:54;98134.47;;;0.94;100.00
28665;BME280;15850;47.524;7.814;2022-12-20T06:52:22;98106.00;;;0.68;100.00
28665;BME280;15850;47.524;7.814;2022-12-20T06:54:50;98059.09;;;0.50;100.00
28665;BME280;15850;47.524;7.814;2022-12-20T06:57:17;98144.97;;;1.06;100.00
28665;BME280;15850;47.524;7.814;2022-12-20T06:59:47;98154.34;;;1.19;100.00
28665;BME280;15850;47.524;7.814;2022-12-20T07:02:13;97909.59;;;-0.62;100.00
28665;BME280;15850;47.524;7.814;2022-12-20T07:04:39;98168.59;;;1.35;100.00
28665;BME280;15850;47.524;7.814;2022-12-20T07:07:05;98057.72;;;0.53;100.00
28665;BME280;15850;47.524;7.814;2022-12-20T07:09:30;97631.09;;;-2.10;100.00
28665;BME280;15850;47.524;7.814;2022-12-20T07:11:56;98165.91;;;1.35;100.00
28665;BME280;15850;47.524;7.814;2022-12-20T07:14:22;98142.31;;;1.16;100.00
28665;BME280;15850;47.524;7.814;2022-12-20T07:16:49;98172.88;;;1.31;100.00
28665;BME280;15850;47.524;7.814;2022-12-20T07:19:15;98171.03;;;1.36;100.00
28665;BME280;15850;47.524;7.814;2022-12-20T07:21:42;98170.75;;;1.33;100.00
28665;BME280;15850;47.524;7.814;2022-12-20T07:24:08;98104.19;;;0.99;100.00
28665;BME280;15850;47.524;7.814;2022-12-20T07:26:35;98103.16;;;1.10;100.00
28665;BME280;15850;47.524;7.814;2022-12-20T07:29:00;98044.66;;;0.72;100.00
28665;BME280;15850;47.524;7.814;2022-12-20T07:31:26;98114.19;;;1.29;100.00
28665;BME280;15850;47.524;7.814;2022-12-20T07:33:53;98155.25;;;1.60;100.00
28665;BME280;15850;47.524;7.814;2022-12-20T07:36:18;98103.44;;;1.14;100.00
28665;BME280;15850;47.524;7.814;2022-12-20T07:38:44;98156.31;;;1.49;100.00
28665;BME280;15850;47.524;7.814;2022-12-20T07:41:11;98138.06;;;1.36;100.00
28665;BME280;15850;47.524;7.814;2022-12-20T07:43:37;97974.41;;;0.29;100.00
28665;BME280;15850;47.524;7.814;2022-12-20T07:46:04;98147.72;;;1.57;100.00
28665;BME280;15850;47.524;7.814;2022-12-20T07:48:29;98143.44;;;1.51;100.00
28665;BME280;15850;47.524;7.814;2022-12-20T07:50:58;98168.13;;;1.63;100.00
28665;BME280;15850;47.524;7.814;2022-12-20T07:53:26;98145.34;;;1.76;100.00
28665;BME280;15850;47.524;7.814;2022-12-20T07:55:53;98146.69;;;1.79;100.00
28665;BME280;15850;47.524;7.814;2022-12-20T07:58:20;98009.09;;;1.07;100.00
28665;BME280;15850;47.524;7.814;2022-12-20T08:00:47;98149.09;;;1.85;100.00
28665;BME280;15850;47.524;7.814;2022-12-20T08:03:16;98146.69;;;1.89;100.00
28665;BME280;15850;47.524;7.814;2022-12-20T08:05:46;98115.00;;;1.86;100.00
28665;BME280;15850;47.524;7.814;2022-12-20T08:08:14;98063.53;;;1.63;100.00
28665;BME280;15850;47.524;7.814;2022-12-20T08:10:41;98094.06;;;1.78;100.00
28665;BME280;15850;47.524;7.814;2022-12-20T08:13:07;98129.97;;;2.28;100.00
28665;BME280;15850;47.524;7.814;2022-12-20T08:15:33;98084.94;;;1.94;100.00
28665;BME280;15850;47.524;7.814;2022-12-20T08:17:59;98082.78;;;1.91;100.00
28665;BME280;15850;47.524;7.814;2022-12-20T08:20:25;98096.19;;;2.01;100.00
28665;BME280;15850;47.524;7.814;2022-12-20T08:22:50;98155.97;;;2.38;100.00
28665;BME280;15850;47.524;7.814;2022-12-20T08:25:17;98125.66;;;2.22;100.00
28665;BME280;15850;47.524;7.814;2022-12-20T08:27:43;98140.16;;;2.31;100.00
28665;BME280;15850;47.524;7.814;2022-12-20T08:30:09;97995.94;;;1.61;100.00
28665;BME280;15850;47.524;7.814;2022-12-20T08:32:35;98040.94;;;1.90;100.00
28665;BME280;15850;47.524;7.814;2022-12-20T08:35:01;98080.88;;;2.17;100.00
28665;BME280;15850;47.524;7.814;2022-12-20T08:37:27;98140.63;;;2.58;100.00
28665;BME280;15850;47.524;7.814;2022-12-20T08:39:52;98126.88;;;2.70;100.00
28665;BME280;15850;47.524;7.814;2022-12-20T08:42:19;97862.53;;;1.02;100.00
28665;BME280;15850;47.524;7.814;2022-12-20T08:44:45;98139.22;;;2.76;100.00
28665;BME280;15850;47.524;7.814;2022-12-20T08:47:10;98069.84;;;2.24;100.00
28665;BME280;15850;47.524;7.814;2022-12-20T08:49:36;98093.69;;;2.41;100.00
28665;BME280;15850;47.524;7.814;2022-12-20T08:52:02;98007.16;;;1.84;100.00
28665;BME280;15850;47.524;7.814;2022-12-20T08:54:28;98092.88;;;2.45;100.00
28665;BME280;15850;47.524;7.814;2022-12-20T08:56:54;97927.84;;;1.42;100.00
28665;BME280;15850;47.524;7.814;2022-12-20T08:59:20;98132.50;;;2.74;100.00
28665;BME280;15850;47.524;7.814;2022-12-20T09:01:46;98013.66;;;2.38;100.00
28665;BME280;15850;47.524;7.814;2022-12-20T09:04:12;98111.75;;;2.95;100.00
28665;BME280;15850;47.524;7.814;2022-12-20T09:06:37;97820.16;;;1.30;100.00
28665;BME280;15850;47.524;7.814;2022-12-20T09:09:03;98129.53;;;3.30;100.00
28665;BME280;15850;47.524;7.814;2022-12-20T09:11:29;98130.50;;;3.49;100.00
28665;BME280;15850;47.524;7.814;2022-12-20T09:13:56;98139.16;;;3.41;100.00
28665;BME280;15850;47.524;7.814;2022-12-20T09:16:25;98075.59;;;3.11;100.00
28665;BME280;15850;47.524;7.814;2022-12-20T09:18:52;98138.38;;;3.75;100.00
28665;BME280;15850;47.524;7.814;2022-12-20T09:21:18;98089.38;;;3.44;100.00
28665;BME280;15850;47.524;7.814;2022-12-20T09:23:45;98057.59;;;3.12;100.00
28665;BME280;15850;47.524;7.814;2022-12-20T09:26:12;98084.97;;;3.19;100.00
28665;BME280;15850;47.524;7.814;2022-12-20T09:28:38;98150.56;;;3.62;100.00
28665;BME280;15850;47.524;7.814;2022-12-20T09:31:05;97952.63;;;2.58;100.00
28665;BME280;15850;47.524;7.814;2022-12-20T09:33:33;98090.22;;;3.39;100.00
28665;BME280;15850;47.524;7.814;2022-12-20T09:36:00;98128.13;;;3.77;100.00
28665;BME280;15850;47.524;7.814;2022-12-20T09:38:27;98122.50;;;4.08;100.00
28665;BME280;15850;47.524;7.814;2022-12-20T09:40:54;98090.53;;;3.96;100.00
28665;BME280;15850;47.524;7.814;2022-12-20T09:43:21;98108.81;;;3.99;100.00
28665;BME280;15850;47.524;7.814;2022-12-20T09:45:50;98070.75;;;4.11;100.00
28665;BME280;15850;47.524;7.814;2022-12-20T09:48:19;98103.78;;;4.45;100.00
28665;BME280;15850;47.524;7.814;2022-12-20T09:50:55;98108.19;;;4.36;100.00
28665;BME280;15850;47.524;7.814;2022-12-20T09:53:29;98096.53;;;4.65;100.00
28665;BME280;15850;47.524;7.814;2022-12-20T09:56:03;97931.63;;;3.58;100.00
28665;BME280;15850;47.524;7.814;2022-12-20T09:58:40;98033.06;;;4.11;100.00
28665;BME280;15850;47.524;7.814;2022-12-20T10:01:15;97790.88;;;2.91;100.00
28665;BME280;15850;47.524;7.814;2022-12-20T10:03:41;98028.88;;;4.47;100.00
28665;BME280;15850;47.524;7.814;2022-12-20T10:06:14;98020.25;;;4.45;100.00
28665;BME280;15850;47.524;7.814;2022-12-20T10:08:49;98048.78;;;4.46;100.00
28665;BME280;15850;47.524;7.814;2022-12-20T10:11:32;98032.88;;;4.69;100.00
28665;BME280;15850;47.524;7.814;2022-12-20T10:14:07;98066.06;;;5.07;100.00
28665;BME280;15850;47.524;7.814;2022-12-20T10:16:43;98046.44;;;4.83;100.00
28665;BME280;15850;47.524;7.814;2022-12-20T10:19:34;98039.75;;;4.80;100.00
28665;BME280;15850;47.524;7.814;2022-12-20T10:22:09;98042.16;;;5.01;100.00
28665;BME280;15850;47.524;7.814;2022-12-20T10:24:40;97995.38;;;4.91;100.00
28665;BME280;15850;47.524;7.814;2022-12-20T10:27:14;98043.72;;;5.39;100.00
28665;BME280;15850;47.524;7.814;2022-12-20T10:29:40;97923.41;;;4.73;100.00
28665;BME280;15850;47.524;7.814;2022-12-20T10:32:12;97782.28;;;3.98;100.00
28665;BME280;15850;47.524;7.814;2022-12-20T10:34:40;98045.94;;;6.03;100.00
28665;BME280;15850;47.524;7.814;2022-12-20T10:37:13;97920.06;;;5.14;100.00
28665;BME280;15850;47.524;7.814;2022-12-20T10:39:41;97903.81;;;5.33;100.00
28665;BME280;15850;47.524;7.814;2022-12-20T10:42:23;97622.63;;;3.51;100.00
28665;BME280;15850;47.524;7.814;2022-12-20T10:44:49;97782.75;;;4.38;100.00
28665;BME280;15850;47.524;7.814;2022-12-20T10:47:27;97450.00;;;2.03;100.00
28665;BME280;15850;47.524;7.814;2022-12-20T10:50:07;98039.72;;;5.37;100.00
28665;BME280;15850;47.524;7.814;2022-12-20T10:52:34;98011.75;;;5.14;100.00
28665;BME280;15850;47.524;7.814;2022-12-20T10:54:59;98017.66;;;5.49;100.00
28665;BME280;15850;47.524;7.814;2022-12-20T10:57:27;97885.22;;;4.85;100.00
28665;BME280;15850;47.524;7.814;2022-12-20T10:59:56;97996.31;;;5.66;100.00
28665;BME280;15850;47.524;7.814;2022-12-20T11:02:27;98003.75;;;5.88;100.00
28665;BME280;15850;47.524;7.814;2022-12-20T11:04:57;97941.06;;;5.91;100.00
28665;BME280;15850;47.524;7.814;2022-12-20T11:07:25;97992.69;;;6.31;100.00
28665;BME280;15850;47.524;7.814;2022-12-20T11:09:56;98013.41;;;6.49;100.00
28665;BME280;15850;47.524;7.814;2022-12-20T11:12:22;98004.47;;;6.49;100.00
28665;BME280;15850;47.524;7.814;2022-12-20T11:14:48;97991.59;;;6.46;100.00
28665;BME280;15850;47.524;7.814;2022-12-20T11:17:21;97930.78;;;6.07;100.00
28665;BME280;15850;47.524;7.814;2022-12-20T11:19:59;97993.06;;;6.52;100.00
28665;BME280;15850;47.524;7.814;2022-12-20T11:22:37;97991.84;;;6.58;100.00
28665;BME280;15850;47.524;7.814;2022-12-20T11:25:19;97998.44;;;6.79;100.00
28665;BME280;15850;47.524;7.814;2022-12-20T11:27:56;97994.94;;;7.01;100.00
28665;BME280;15850;47.524;7.814;2022-12-20T11:30:32;97850.03;;;6.42;100.00
28665;BME280;15850;47.524;7.814;2022-12-20T11:33:13;97899.47;;;7.01;100.00
28665;BME280;15850;47.524;7.814;2022-12-20T11:35:47;97974.38;;;7.68;100.00
28665;BME280;15850;47.524;7.814;2022-12-20T11:38:24;97971.47;;;7.56;100.00
28665;BME280;15850;47.524;7.814;2022-12-20T11:40:56;97897.03;;;6.91;100.00
28665;BME280;15850;47.524;7.814;2022-12-20T11:43:55;97896.78;;;7.01;100.00
28665;BME280;15850;47.524;7.814;2022-12-20T11:46:37;97835.44;;;6.88;100.00
28665;BME280;15850;47.524;7.814;2022-12-20T11:49:39;97871.63;;;7.71;100.00
28665;BME280;15850;47.524;7.814;2022-12-20T11:52:16;97918.03;;;8.36;100.00
28665;BME280;15850;47.524;7.814;2022-12-20T11:54:47;97837.22;;;7.63;100.00
28665;BME280;15850;47.524;7.814;2022-12-20T11:57:22;97910.25;;;7.86;100.00
28665;BME280;15850;47.524;7.814;2022-12-20T11:59:52;97913.16;;;7.89;100.00
28665;BME280;15850;47.524;7.814;2022-12-20T12:02:26;97853.41;;;8.03;100.00
28665;BME280;15850;47.524;7.814;2022-12-20T12:04:55;97840.19;;;8.10;100.00
28665;BME280;15850;47.524;7.814;2022-12-20T12:07:28;97732.53;;;7.41;100.00
28665;BME280;15850;47.524;7.814;2022-12-20T12:09:58;97900.81;;;8.32;100.00
28665;BME280;15850;47.524;7.814;2022-12-20T12:12:31;97919.72;;;8.06;100.00
28665;BME280;15850;47.524;7.814;2022-12-20T12:15:00;97914.56;;;7.87;100.00
28665;BME280;15850;47.524;7.814;2022-12-20T12:17:33;97728.56;;;6.37;100.00
28665;BME280;15850;47.524;7.814;2022-12-20T12:20:16;97842.56;;;7.06;100.00
28665;BME280;15850;47.524;7.814;2022-12-20T12:22:45;97778.66;;;6.65;100.00
28665;BME280;15850;47.524;7.814;2022-12-20T12:25:16;97887.44;;;7.38;100.00
28665;BME280;15850;47.524;7.814;2022-12-20T12:27:44;97894.56;;;7.34;100.00
28665;BME280;15850;47.524;7.814;2022-12-20T12:30:12;97895.78;;;7.50;100.00
28665;BME280;15850;47.524;7.814;2022-12-20T12:32:40;97731.13;;;6.42;100.00
28665;BME280;15850;47.524;7.814;2022-12-20T12:35:17;97832.38;;;7.43;100.00
28665;BME280;15850;47.524;7.814;2022-12-20T12:37:53;97851.31;;;7.83;100.00
28665;BME280;15850;47.524;7.814;2022-12-20T12:40:39;97873.06;;;8.26;100.00
28665;BME280;15850;47.524;7.814;2022-12-20T12:43:21;97873.19;;;8.12;100.00
28665;BME280;15850;47.524;7.814;2022-12-20T12:45:56;97862.63;;;7.93;100.00
28665;BME280;15850;47.524;7.814;2022-12-20T12:48:26;97771.50;;;7.23;100.00
28665;BME280;15850;47.524;7.814;2022-12-20T12:50:56;97863.72;;;7.75;100.00
28665;BME280;15850;47.524;7.814;2022-12-20T12:53:27;97801.13;;;6.97;100.00
28665;BME280;15850;47.524;7.814;2022-12-20T12:55:57;97792.34;;;6.69;100.00
28665;BME280;15850;47.524;7.814;2022-12-20T12:59:08;97683.50;;;6.23;100.00
28665;BME280;15850;47.524;7.814;2022-12-20T13:01:45;97854.81;;;7.43;100.00
28665;BME280;15850;47.524;7.814;2022-12-20T13:04:23;97852.50;;;7.59;100.00
28665;BME280;15850;47.524;7.814;2022-12-20T13:07:01;97729.94;;;7.19;100.00
28665;BME280;15850;47.524;7.814;2022-12-20T13:09:39;97836.34;;;7.94;100.00
28665;BME280;15850;47.524;7.814;2022-12-20T13:18:26;97785.13;;;7.58;100.00
28665;BME280;15850;47.524;7.814;2022-12-20T13:21:30;97824.56;;;7.98;100.00
28665;BME280;15850;47.524;7.814;2022-12-20T13:27:22;97789.59;;;7.71;100.00